Time;durP1;ratioP1;P1;durP2;ratioP2;P2;SDS_P1;SDS_P2;PMS_P1;PMS_P2;Temp;Humidity;BMP_temperature;BMP_pressure;BME280_temperature;BME280_humidity;BME280_pressure;Samples;Min_cycle;Max_cycle;Signal;HPM_P1;HPM_P2
2021/01/02 00:02:21;;;;;;;1.27;0.50;;;14.60;99.90;;;;;;4135380;34;20164;-92
2021/01/02 00:04:55;;;;;;;0.50;0.35;;;14.60;99.90;;;;;;4144988;34;20179;-86
2021/01/02 00:08:02;;;;;;;8.10;0.85;;;14.60;99.90;;;;;;4126125;34;20104;-88
2021/01/02 00:10:54;;;;;;;3.83;0.70;;;14.50;99.90;;;;;;4131429;34;20045;-85
2021/01/02 00:13:53;;;;;;;0.80;0.40;;;14.40;99.90;;;;;;4117161;34;20092;-91
2021/01/02 00:16:46;;;;;;;2.55;0.30;;;14.40;99.90;;;;;;4135471;34;20056;-85
2021/01/02 00:19:43;;;;;;;1.98;0.55;;;14.50;99.90;;;;;;4136548;34;20148;-87
2021/01/02 00:22:18;;;;;;;1.75;0.50;;;14.50;99.90;;;;;;4127550;34;21415;-89
2021/01/02 00:24:57;;;;;;;0.35;0.32;;;14.50;99.90;;;;;;4132123;34;20028;-88
2021/01/02 00:27:32;;;;;;;2.47;0.50;;;14.50;99.90;;;;;;4150224;34;20068;-88
2021/01/02 00:30:02;;;;;;;1.75;0.50;;;14.60;99.90;;;;;;4117437;34;20146;-87
2021/01/02 00:32:31;;;;;;;0.55;0.40;;;;;;;;;;4135230;34;20126;-87
2021/01/02 00:35:06;;;;;;;5.22;0.50;;;14.80;99.90;;;;;;4129739;34;20052;-91
2021/01/02 00:37:38;;;;;;;0.40;0.30;;;15.00;99.90;;;;;;4138239;34;20059;-88
2021/01/02 00:40:12;;;;;;;2.65;0.47;;;15.00;99.90;;;;;;4122872;34;20084;-87
2021/01/02 00:42:43;;;;;;;2.72;0.85;;;15.10;99.90;;;;;;4153363;34;20060;-92
2021/01/02 00:45:15;;;;;;;4.00;0.52;;;15.10;99.90;;;;;;4152701;34;20153;-88
2021/01/02 00:47:44;;;;;;;1.95;0.65;;;15.20;99.90;;;;;;4147053;34;20564;-88
2021/01/02 00:50:14;;;;;;;2.05;0.75;;;15.20;98.70;;;;;;4144882;34;20081;-91
2021/01/02 00:52:45;;;;;;;3.30;0.40;;;15.30;98.40;;;;;;4141958;34;20111;-85
2021/01/02 00:55:26;;;;;;;3.30;0.62;;;15.30;98.00;;;;;;4153361;34;20146;-86
2021/01/02 00:58:16;;;;;;;1.12;0.45;;;15.30;97.20;;;;;;4142508;34;20067;-88
2021/01/02 01:00:50;;;;;;;3.00;0.50;;;15.30;96.90;;;;;;4148828;34;20149;-87
2021/01/02 01:03:45;;;;;;;4.55;0.80;;;15.30;96.00;;;;;;4140632;34;20094;-90
2021/01/02 01:06:22;;;;;;;1.00;0.57;;;15.30;95.80;;;;;;4154355;34;20045;-87
2021/01/02 01:08:53;;;;;;;2.15;0.40;;;15.40;95.70;;;;;;4140548;34;20108;-87
2021/01/02 01:11:23;;;;;;;1.85;0.60;;;15.40;95.80;;;;;;4126647;34;20162;-84
2021/01/02 01:13:55;;;;;;;0.77;0.50;;;15.30;96.20;;;;;;4155043;34;20134;-86
2021/01/02 01:16:26;;;;;;;0.30;0.30;;;15.30;96.30;;;;;;4156973;34;20044;-87
2021/01/02 01:19:01;;;;;;;6.87;0.73;;;15.20;96.30;;;;;;4162634;34;20072;-88
2021/01/02 01:21:35;;;;;;;1.27;0.50;;;15.20;96.40;;;;;;4138064;34;20128;-88
2021/01/02 01:24:12;;;;;;;2.00;0.65;;;15.10;96.20;;;;;;4128475;34;20851;-83
2021/01/02 01:27:04;;;;;;;5.37;0.95;;;15.10;96.50;;;;;;4156800;34;20122;-91
2021/01/02 01:29:42;;;;;;;1.37;0.40;;;15.10;96.50;;;;;;4140799;34;20848;-90
2021/01/02 01:32:10;;;;;;;1.55;0.37;;;15.20;96.30;;;;;;4149735;34;20349;-86
2021/01/02 01:34:39;;;;;;;5.00;0.52;;;15.10;96.40;;;;;;4146635;34;20052;-88
2021/01/02 01:37:08;;;;;;;2.72;0.50;;;15.10;96.60;;;;;;4157500;34;20064;-90
2021/01/02 01:39:36;;;;;;;2.22;0.50;;;15.00;96.80;;;;;;4160260;34;20083;-89
2021/01/02 01:42:06;;;;;;;3.17;1.00;;;15.00;96.80;;;;;;4142971;34;20083;-85
2021/01/02 01:44:55;;;;;;;1.80;0.70;;;15.10;97.10;;;;;;4145861;34;20068;-91
2021/01/02 01:47:39;;;;;;;2.15;0.57;;;15.10;97.40;;;;;;4156184;34;20064;-86
2021/01/02 01:50:21;;;;;;;5.30;0.80;;;15.10;97.40;;;;;;4150824;34;20097;-91
2021/01/02 01:52:52;;;;;;;2.90;0.55;;;15.20;97.40;;;;;;4150309;34;20116;-87
2021/01/02 01:55:35;;;;;;;2.12;0.57;;;15.30;97.10;;;;;;4140826;34;21215;-87
2021/01/02 01:58:11;;;;;;;0.93;0.60;;;15.30;96.60;;;;;;4148006;34;20121;-87
2021/01/02 02:00:49;;;;;;;1.58;0.80;;;15.30;96.80;;;;;;4158945;34;20052;-91
2021/01/02 02:03:33;;;;;;;2.17;0.40;;;15.30;97.00;;;;;;4142680;34;20133;-91
2021/01/02 02:06:22;;;;;;;0.62;0.30;;;15.30;97.10;;;;;;4132164;34;20108;-85
2021/01/02 02:08:59;;;;;;;1.20;0.62;;;15.30;97.40;;;;;;4127913;34;20096;-89
2021/01/02 02:11:37;;;;;;;0.30;0.30;;;15.40;97.60;;;;;;4145595;34;20127;-92
2021/01/02 02:14:16;;;;;;;1.05;0.30;;;15.30;97.70;;;;;;4138724;34;20113;-90
2021/01/02 02:16:52;;;;;;;3.65;0.57;;;15.40;97.80;;;;;;4150575;34;20192;-87
2021/01/02 02:19:46;;;;;;;3.37;0.70;;;15.40;97.60;;;;;;4146801;34;20189;-92
2021/01/02 02:22:16;;;;;;;1.57;0.60;;;15.40;96.40;;;;;;4132769;34;20126;-85
2021/01/02 02:24:44;;;;;;;1.42;0.77;;;15.40;96.00;;;;;;4128271;34;20087;-90
2021/01/02 02:27:14;;;;;;;0.75;0.40;;;15.40;95.50;;;;;;4143780;34;20087;-90
2021/01/02 02:30:02;;;;;;;1.10;0.32;;;15.30;94.90;;;;;;4132824;34;20084;-85
2021/01/02 02:32:35;;;;;;;1.08;0.40;;;15.40;95.00;;;;;;4146452;34;20145;-86
2021/01/02 02:35:06;;;;;;;1.42;0.40;;;15.30;94.30;;;;;;4132634;34;20128;-84
2021/01/02 02:37:37;;;;;;;2.42;0.45;;;15.30;94.70;;;;;;4148360;34;20107;-89
2021/01/02 02:40:08;;;;;;;2.60;0.50;;;15.20;94.90;;;;;;4128965;34;20108;-89
2021/01/02 02:42:39;;;;;;;1.85;0.40;;;15.30;94.80;;;;;;4146012;34;20097;-87
2021/01/02 02:45:11;;;;;;;0.85;0.37;;;15.30;94.90;;;;;;4138166;34;20068;-87
2021/01/02 02:47:41;;;;;;;1.90;0.50;;;15.20;94.60;;;;;;4149606;34;20154;-88
2021/01/02 02:50:17;;;;;;;1.37;0.40;;;15.20;94.80;;;;;;4129475;34;20450;-85
2021/01/02 02:52:53;;;;;;;2.72;0.90;;;15.20;94.20;;;;;;4149689;34;20053;-93
2021/01/02 02:55:21;;;;;;;0.95;0.30;;;15.20;93.70;;;;;;4142363;34;20139;-93
2021/01/02 02:57:49;;;;;;;1.15;0.40;;;15.10;93.50;;;;;;4139781;34;20056;-88
2021/01/02 03:00:19;;;;;;;0.70;0.37;;;15.00;94.00;;;;;;4149397;34;20060;-87
2021/01/02 03:02:48;;;;;;;0.40;0.30;;;14.90;94.40;;;;;;4147997;34;20161;-90
2021/01/02 03:05:17;;;;;;;3.40;0.70;;;;;;;;;;4145572;34;20119;-89
2021/01/02 03:07:46;;;;;;;3.45;0.43;;;;;;;;;;4154028;34;20370;-89
2021/01/02 03:13:41;;;;;;;1.45;0.47;;;14.70;95.00;;;;;;4269240;28;20184;-87
2021/01/02 03:16:10;;;;;;;2.45;0.40;;;14.60;95.40;;;;;;4129547;34;20053;-91
2021/01/02 03:18:38;;;;;;;0.50;0.40;;;14.50;95.50;;;;;;4128346;34;20061;-89
2021/01/02 03:21:05;;;;;;;5.03;0.43;;;14.60;95.20;;;;;;4281052;29;20146;-92
2021/01/02 03:23:52;;;;;;;2.62;0.75;;;14.60;95.30;;;;;;4160488;29;20106;-91
2021/01/02 03:26:20;;;;;;;1.77;0.30;;;14.60;95.40;;;;;;4153141;34;20138;-91
2021/01/02 03:28:50;;;;;;;0.43;0.40;;;14.70;95.30;;;;;;4147362;34;20472;-91
2021/01/02 03:31:19;;;;;;;2.05;0.40;;;14.70;95.20;;;;;;4154153;34;20895;-93
2021/01/02 03:33:47;;;;;;;0.43;0.43;;;14.80;95.20;;;;;;4139778;34;20429;-87
2021/01/02 03:36:16;;;;;;;2.50;0.50;;;14.90;95.30;;;;;;4154200;34;20086;-88
2021/01/02 03:38:53;;;;;;;0.95;0.40;;;14.80;95.60;;;;;;4151900;34;20090;-91
2021/01/02 03:41:23;;;;;;;2.08;0.65;;;14.90;95.60;;;;;;4139105;34;20060;-92
2021/01/02 03:43:51;;;;;;;0.68;0.50;;;15.00;95.60;;;;;;4154678;34;20068;-90
2021/01/02 03:46:19;;;;;;;1.92;0.30;;;15.00;95.60;;;;;;4156013;34;20052;-87
2021/01/02 03:48:49;;;;;;;1.27;0.70;;;15.00;97.20;;;;;;4154452;34;20082;-92
2021/01/02 03:51:22;;;;;;;0.80;0.52;;;15.00;99.60;;;;;;4151133;34;20120;-86
2021/01/02 03:53:51;;;;;;;2.50;0.68;;;15.10;99.90;;;;;;4148127;34;21406;-91
2021/01/02 03:56:19;;;;;;;4.75;0.60;;;15.10;99.90;;;;;;4135804;34;20052;-90
2021/01/02 03:58:51;;;;;;;1.23;0.37;;;15.00;99.90;;;;;;4142825;34;20065;-87
2021/01/02 04:01:19;;;;;;;2.03;0.52;;;14.90;99.90;;;;;;4153186;34;20071;-88
2021/01/02 04:03:47;;;;;;;1.17;0.62;;;14.80;99.90;;;;;;4146062;34;20087;-90
2021/01/02 04:06:24;;;;;;;2.08;0.32;;;14.70;99.90;;;;;;4153712;34;20078;-91
2021/01/02 04:08:52;;;;;;;1.30;0.47;;;14.70;99.90;;;;;;4152391;34;20154;-88
2021/01/02 04:11:20;;;;;;;5.32;0.60;;;14.60;99.90;;;;;;4157254;34;20124;-91
2021/01/02 04:13:49;;;;;;;3.67;0.50;;;14.60;99.90;;;;;;4144024;34;20408;-89
2021/01/02 04:16:21;;;;;;;2.87;0.50;;;14.50;99.90;;;;;;4158858;34;20134;-89
2021/01/02 04:18:49;;;;;;;2.10;0.37;;;14.60;99.90;;;;;;4146111;34;20133;-88
2021/01/02 04:21:16;;;;;;;1.23;0.55;;;14.60;99.90;;;;;;4130482;34;20194;-87
2021/01/02 04:23:45;;;;;;;4.90;0.50;;;14.60;99.90;;;;;;4150223;34;20145;-88
2021/01/02 04:26:18;;;;;;;2.20;0.68;;;14.70;99.90;;;;;;4144335;34;20059;-92
2021/01/02 04:28:47;;;;;;;4.28;0.55;;;14.80;99.90;;;;;;4143234;34;20111;-88
2021/01/02 04:31:16;;;;;;;5.07;0.60;;;14.90;99.90;;;;;;4140529;34;21711;-91
2021/01/02 04:33:44;;;;;;;1.27;0.52;;;14.90;99.90;;;;;;4145946;34;20140;-88
2021/01/02 04:36:14;;;;;;;1.67;0.60;;;15.00;99.90;;;;;;4143854;34;20064;-87
2021/01/02 04:38:43;;;;;;;2.90;0.77;;;14.90;99.90;;;;;;4148563;34;20096;-88
2021/01/02 04:41:14;;;;;;;2.03;0.40;;;14.90;99.90;;;;;;4141675;34;20111;-86
2021/01/02 04:43:48;;;;;;;1.35;0.45;;;14.80;99.90;;;;;;4154697;34;20130;-89
2021/01/02 04:46:16;;;;;;;9.23;0.82;;;14.80;99.90;;;;;;4155141;34;20060;-90
2021/01/02 04:48:46;;;;;;;1.10;0.52;;;14.80;99.90;;;;;;4142609;34;20067;-88
2021/01/02 04:51:16;;;;;;;3.80;0.70;;;14.80;99.90;;;;;;4144960;34;20044;-85
2021/01/02 04:53:47;;;;;;;0.60;0.37;;;14.90;99.90;;;;;;4161997;34;20064;-91
2021/01/02 04:56:17;;;;;;;0.40;0.30;;;14.90;99.90;;;;;;4148476;34;20065;-87
2021/01/02 04:58:45;;;;;;;3.40;0.62;;;14.80;99.90;;;;;;4151068;34;20117;-90
2021/01/02 05:01:14;;;;;;;5.00;0.70;;;14.60;99.90;;;;;;4151244;34;20061;-91
2021/01/02 05:03:46;;;;;;;4.85;0.88;;;14.50;99.90;;;;;;4143388;34;20427;-90
2021/01/02 05:06:24;;;;;;;4.78;0.77;;;14.50;99.90;;;;;;4135778;34;20146;-88
2021/01/02 05:08:52;;;;;;;1.92;0.50;;;14.50;99.90;;;;;;4148723;34;20111;-86
2021/01/02 05:11:21;;;;;;;3.58;0.60;;;14.40;99.90;;;;;;4132680;34;20120;-90
2021/01/02 05:13:49;;;;;;;2.33;0.50;;;14.50;99.90;;;;;;4152822;34;20108;-88
2021/01/02 05:16:34;;;;;;;0.90;0.32;;;14.50;99.90;;;;;;4133980;34;20095;-89
2021/01/02 05:19:07;;;;;;;2.78;0.60;;;14.50;99.90;;;;;;4155546;34;20056;-88
2021/01/02 05:21:36;;;;;;;1.10;0.50;;;14.50;99.90;;;;;;4156358;34;20061;-92
2021/01/02 05:24:10;;;;;;;5.22;0.80;;;14.60;99.90;;;;;;4143309;34;20976;-84
2021/01/02 05:26:45;;;;;;;4.07;0.55;;;14.60;99.90;;;;;;4139091;34;20102;-89
2021/01/02 05:29:20;;;;;;;1.87;0.70;;;14.60;99.90;;;;;;4146196;34;20064;-86
2021/01/02 05:32:03;;;;;;;1.23;0.82;;;14.70;99.90;;;;;;4138546;34;20135;-89
2021/01/02 05:34:33;;;;;;;7.22;1.05;;;14.70;99.90;;;;;;4142663;34;20526;-88
2021/01/02 05:37:02;;;;;;;1.60;0.50;;;14.80;99.90;;;;;;4141039;34;20059;-87
2021/01/02 05:39:54;;;;;;;2.00;0.43;;;14.80;99.90;;;;;;4125003;34;20156;-92
2021/01/02 05:42:28;;;;;;;1.67;0.50;;;14.80;99.90;;;;;;4150899;34;20443;-92
2021/01/02 05:44:58;;;;;;;2.03;0.60;;;14.70;99.90;;;;;;4143913;34;20741;-92
2021/01/02 05:47:29;;;;;;;3.20;0.65;;;14.60;99.90;;;;;;4152575;34;20048;-89
2021/01/02 05:50:01;;;;;;;0.90;0.40;;;14.50;99.90;;;;;;4147397;34;20083;-89
2021/01/02 05:52:34;;;;;;;0.73;0.40;;;14.60;99.90;;;;;;4142634;34;20112;-92
2021/01/02 05:55:02;;;;;;;3.70;0.43;;;14.60;99.90;;;;;;4135533;34;20114;-88
2021/01/02 05:57:30;;;;;;;4.30;0.43;;;14.70;99.90;;;;;;4149254;34;20089;-87
2021/01/02 05:59:59;;;;;;;1.67;0.40;;;14.70;99.90;;;;;;4154269;34;20138;-90
2021/01/02 06:02:33;;;;;;;6.15;0.80;;;14.80;99.90;;;;;;4132822;34;20090;-87
2021/01/02 06:05:07;;;;;;;0.50;0.50;;;14.90;99.90;;;;;;4132567;34;20208;-90
2021/01/02 06:07:38;;;;;;;1.00;0.52;;;15.00;99.90;;;;;;4151940;34;20075;-87
2021/01/02 06:10:10;;;;;;;2.87;0.90;;;15.10;99.90;;;;;;4146811;34;20155;-89
2021/01/02 06:12:40;;;;;;;2.12;0.50;;;15.20;99.90;;;;;;4129545;34;20126;-87
2021/01/02 06:15:14;;;;;;;1.05;0.52;;;15.20;99.90;;;;;;4150944;34;20045;-90
2021/01/02 06:17:43;;;;;;;;;;;15.20;99.90;;;;;;4153274;34;20116;-91
2021/01/02 06:20:16;;;;;;;1.12;0.80;;;15.20;99.90;;;;;;4148842;34;20011;-91
2021/01/02 06:22:45;;;;;;;2.30;0.60;;;15.10;99.90;;;;;;4152468;34;20052;-87
2021/01/02 06:25:15;;;;;;;3.12;0.40;;;15.10;99.90;;;;;;4154227;34;20372;-87
2021/01/02 06:27:45;;;;;;;3.78;0.43;;;15.10;99.90;;;;;;4151281;34;20666;-88
2021/01/02 06:30:18;;;;;;;0.80;0.50;;;15.00;99.90;;;;;;4150022;34;20064;-88
2021/01/02 06:32:47;;;;;;;1.85;0.47;;;15.10;99.90;;;;;;4144075;34;20480;-91
2021/01/02 06:35:21;;;;;;;2.65;0.65;;;15.10;99.90;;;;;;4158954;34;20078;-89
2021/01/02 06:37:51;;;;;;;0.45;0.45;;;15.10;99.90;;;;;;4154692;34;20550;-85
2021/01/02 06:40:20;;;;;;;3.42;0.60;;;15.10;99.90;;;;;;4144954;34;20123;-88
2021/01/02 06:43:10;;;;;;;2.42;0.60;;;15.10;99.90;;;;;;4139976;34;20064;-87
2021/01/02 06:45:38;;;;;;;1.62;0.75;;;15.00;99.90;;;;;;4149819;34;20059;-89
2021/01/02 06:48:28;;;;;;;4.07;0.50;;;15.10;99.90;;;;;;4151136;34;20502;-92
2021/01/02 06:51:00;;;;;;;0.75;0.43;;;15.10;99.90;;;;;;4138886;34;20060;-91
2021/01/02 06:53:36;;;;;;;3.30;0.57;;;15.20;99.90;;;;;;4155653;34;20079;-87
2021/01/02 06:56:09;;;;;;;3.05;0.50;;;15.30;98.70;;;;;;4145357;34;20056;-91
2021/01/02 06:58:50;;;;;;;1.27;0.57;;;15.30;98.00;;;;;;4154060;34;20086;-87
2021/01/02 07:01:18;;;;;;;5.00;0.62;;;15.30;97.20;;;;;;4151755;34;20087;-85
2021/01/02 07:03:47;;;;;;;0.47;0.47;;;15.40;96.50;;;;;;4152463;34;20072;-87
2021/01/02 07:06:22;;;;;;;2.33;0.50;;;15.40;96.20;;;;;;4150145;34;20025;-87
2021/01/02 07:08:53;;;;;;;;;;;15.40;95.80;;;;;;4145609;34;20960;-88
2021/01/02 07:11:44;;;;;;;0.80;0.68;;;15.40;95.90;;;;;;4149014;34;20674;-87
2021/01/02 07:14:17;;;;;;;3.67;0.80;;;15.50;95.70;;;;;;4157162;34;20060;-87
2021/01/02 07:16:55;;;;;;;2.95;0.60;;;15.40;95.50;;;;;;4145887;34;20729;-86
2021/01/02 07:19:24;;;;;;;1.58;0.40;;;15.50;95.50;;;;;;4129138;34;20089;-88
2021/01/02 07:21:57;;;;;;;1.30;0.50;;;15.50;94.80;;;;;;4134261;34;20233;-88
2021/01/02 07:24:27;;;;;;;3.85;0.40;;;15.50;94.70;;;;;;4150124;34;20064;-85
2021/01/02 07:27:03;;;;;;;0.60;0.40;;;15.50;94.60;;;;;;4139322;34;20111;-91
2021/01/02 07:29:42;;;;;;;1.90;0.75;;;15.30;94.60;;;;;;4131964;34;20054;-88
2021/01/02 07:32:23;;;;;;;1.48;0.40;;;15.20;94.80;;;;;;4138639;34;20116;-88
2021/01/02 07:34:53;;;;;;;4.90;0.90;;;15.00;94.90;;;;;;4131874;34;20796;-87
2021/01/02 07:37:24;;;;;;;3.70;0.55;;;14.90;95.00;;;;;;4140881;34;20192;-88
2021/01/02 07:39:56;;;;;;;2.00;0.50;;;14.80;95.10;;;;;;4151042;34;20146;-87
2021/01/02 07:42:29;;;;;;;5.07;0.98;;;14.80;95.00;;;;;;4149743;34;20160;-87
2021/01/02 07:45:04;;;;;;;1.25;0.70;;;14.70;95.20;;;;;;4158708;34;20060;-89
2021/01/02 07:47:32;;;;;;;;;;;14.70;95.30;;;;;;4150887;34;20126;-91
2021/01/02 07:50:02;;;;;;;1.70;0.73;;;;;;;;;;4145016;34;19986;-89
2021/01/02 07:52:30;;;;;;;2.83;0.62;;;14.60;95.50;;;;;;4139327;34;20067;-89
2021/01/02 07:55:09;;;;;;;2.87;0.47;;;14.70;95.10;;;;;;4133372;34;20812;-89
2021/01/02 07:57:38;;;;;;;3.97;0.60;;;14.70;95.00;;;;;;4144845;34;20389;-88
2021/01/02 08:00:08;;;;;;;1.12;0.60;;;14.60;95.10;;;;;;4137349;34;20119;-88
2021/01/02 08:02:41;;;;;;;3.45;0.70;;;14.60;95.00;;;;;;4151738;34;20060;-89
2021/01/02 08:05:17;;;;;;;1.83;0.47;;;14.70;94.70;;;;;;4142199;34;20131;-90
2021/01/02 08:07:56;;;;;;;3.80;1.20;;;14.80;94.80;;;;;;4152185;34;20068;-89
2021/01/02 08:10:27;;;;;;;5.62;0.70;;;14.90;94.70;;;;;;4146422;34;20519;-87
2021/01/02 08:12:57;;;;;;;1.75;0.70;;;14.90;95.00;;;;;;4151843;34;20437;-89
2021/01/02 08:15:37;;;;;;;1.00;0.60;;;14.90;95.00;;;;;;4131060;34;20087;-87
2021/01/02 08:18:09;;;;;;;1.48;0.60;;;15.00;95.00;;;;;;4151173;34;20479;-87
2021/01/02 08:20:39;;;;;;;1.12;0.40;;;15.10;95.00;;;;;;4140541;34;20148;-89
2021/01/02 08:23:15;;;;;;;2.87;0.77;;;15.20;94.90;;;;;;4148313;34;20206;-85
2021/01/02 08:25:44;;;;;;;3.30;1.20;;;15.30;94.90;;;;;;4153034;34;20420;-87
2021/01/02 08:28:13;;;;;;;2.12;0.85;;;15.40;94.70;;;;;;4136585;34;20116;-86
2021/01/02 08:30:41;;;;;;;2.12;0.80;;;15.60;93.80;;;;;;4144457;34;20104;-90
2021/01/02 08:33:13;;;;;;;5.55;1.08;;;15.70;93.20;;;;;;4148677;34;20449;-86
2021/01/02 08:35:45;;;;;;;4.72;0.77;;;15.70;93.10;;;;;;4160725;34;20086;-87
2021/01/02 08:38:14;;;;;;;5.20;0.70;;;15.80;93.30;;;;;;4152308;34;20056;-88
2021/01/02 08:40:50;;;;;;;0.93;0.70;;;15.80;93.20;;;;;;4157513;34;20072;-89
2021/01/02 08:43:29;;;;;;;7.80;1.12;;;15.80;92.80;;;;;;4156506;34;20060;-87
2021/01/02 08:46:00;;;;;;;1.92;0.73;;;15.90;92.90;;;;;;4159784;34;20531;-87
2021/01/02 08:48:31;;;;;;;4.82;1.00;;;15.90;93.00;;;;;;4161265;34;20060;-92
2021/01/02 08:50:59;;;;;;;4.53;1.25;;;16.00;93.10;;;;;;4168719;34;20481;-89
2021/01/02 08:53:36;;;;;;;2.00;0.65;;;16.10;92.80;;;;;;4167609;34;20059;-91
2021/01/02 08:56:26;;;;;;;2.05;0.50;;;16.10;91.80;;;;;;4160039;34;20081;-85
2021/01/02 08:58:57;;;;;;;0.50;0.40;;;16.20;91.50;;;;;;4160037;34;20070;-91
2021/01/02 09:01:31;;;;;;;2.08;0.40;;;16.20;91.00;;;;;;4156060;34;20114;-91
2021/01/02 09:04:13;;;;;;;1.87;0.55;;;16.30;90.70;;;;;;4143380;34;20593;-90
2021/01/02 09:06:41;;;;;;;1.83;0.88;;;16.30;90.40;;;;;;4164254;34;20116;-88
2021/01/02 09:09:09;;;;;;;2.45;0.95;;;16.40;90.30;;;;;;4154993;34;20067;-88
2021/01/02 09:11:47;;;;;;;2.08;0.62;;;16.40;90.90;;;;;;4152458;34;20736;-85
2021/01/02 09:14:15;;;;;;;5.90;0.95;;;16.40;90.90;;;;;;4157313;34;20113;-89
2021/01/02 09:17:03;;;;;;;1.60;0.52;;;16.40;90.90;;;;;;4157100;34;20688;-91
2021/01/02 09:19:33;;;;;;;1.25;0.55;;;16.40;92.30;;;;;;4150939;34;20079;-85
2021/01/02 09:22:00;;;;;;;5.43;0.60;;;16.40;92.40;;;;;;4153617;34;20197;-90
2021/01/02 09:24:30;;;;;;;1.67;0.68;;;16.40;92.20;;;;;;4155709;34;20118;-84
2021/01/02 09:26:58;;;;;;;3.17;0.50;;;16.50;92.20;;;;;;4163610;34;20133;-87
2021/01/02 09:29:26;;;;;;;2.33;0.65;;;16.40;91.70;;;;;;4167452;34;20071;-88
2021/01/02 09:31:54;;;;;;;2.42;0.50;;;16.50;91.40;;;;;;4163013;34;20056;-87
2021/01/02 09:34:22;;;;;;;3.33;1.20;;;16.50;91.00;;;;;;4167437;34;20106;-91
2021/01/02 09:36:53;;;;;;;1.42;0.60;;;16.60;91.10;;;;;;4156117;34;20070;-86
2021/01/02 09:39:23;;;;;;;3.20;0.75;;;16.60;91.10;;;;;;4167937;34;20120;-88
2021/01/02 09:41:51;;;;;;;2.25;0.98;;;16.60;91.10;;;;;;4152963;34;20091;-88
2021/01/02 09:44:19;;;;;;;1.95;0.60;;;16.70;91.30;;;;;;4156949;34;20117;-93
2021/01/02 09:46:51;;;;;;;2.97;0.95;;;16.70;90.70;;;;;;4152109;34;20064;-88
2021/01/02 09:49:20;;;;;;;2.35;0.70;;;16.60;90.30;;;;;;4164701;34;20859;-86
2021/01/02 09:51:48;;;;;;;2.22;0.98;;;16.60;90.20;;;;;;4164271;34;20127;-88
2021/01/02 09:54:16;;;;;;;3.33;2.50;;;;;;;;;;4164032;34;20064;-85
2021/01/02 09:56:47;;;;;;;3.87;3.12;;;18.40;99.90;;;;;;4165449;34;20253;-90
2021/01/02 09:59:15;;;;;;;3.28;3.03;;;20.60;75.60;;;;;;4170524;34;20068;-92
2021/01/02 10:01:44;;;;;;;2.83;2.33;;;21.30;75.20;;;;;;4173362;34;20107;-90
2021/01/02 10:04:12;;;;;;;2.35;1.65;;;21.80;96.40;;;;;;4153689;34;20456;-92
2021/01/02 10:06:48;;;;;;;2.25;1.60;;;22.20;93.10;;;;;;4152501;34;20096;-86
2021/01/02 10:09:18;;;;;;;1.23;1.08;;;22.10;92.60;;;;;;4151536;34;20064;-87
2021/01/02 10:11:46;;;;;;;1.62;1.10;;;21.70;92.00;;;;;;4154673;34;20091;-89
2021/01/02 10:14:16;;;;;;;1.90;1.20;;;;;;;;;;4155458;34;20134;-86
2021/01/02 10:16:44;;;;;;;1.75;1.62;;;21.10;92.40;;;;;;4163960;34;20164;-86
2021/01/02 10:19:20;;;;;;;1.70;1.60;;;;;;;;;;4142411;34;20056;-86
2021/01/02 10:21:49;;;;;;;5.80;1.90;;;;;;;;;;4162403;34;20417;-90
2021/01/02 10:24:18;;;;;;;2.85;2.12;;;;;;;;;;4151790;34;20103;-89
2021/01/02 10:26:46;;;;;;;2.78;1.87;;;;;;;;;;4151282;34;20071;-92
2021/01/02 10:29:14;;;;;;;3.90;3.60;;;;;;;;;;4164529;34;20436;-87
2021/01/02 10:31:44;;;;;;;4.20;3.90;;;;;;;;;;4160196;34;20130;-91
2021/01/02 10:34:12;;;;;;;3.78;1.40;;;27.50;93.40;;;;;;4156315;34;20060;-87
2021/01/02 10:36:42;;;;;;;4.80;1.87;;;;;;;;;;4155408;34;20173;-92
2021/01/02 10:39:11;;;;;;;2.08;0.85;;;;;;;;;;4156330;34;20072;-86
2021/01/02 10:41:41;;;;;;;1.35;0.93;;;23.80;92.20;;;;;;4156592;34;20052;-89
2021/01/02 10:44:09;;;;;;;1.67;0.93;;;22.90;78.50;;;;;;4163539;34;20547;-88
2021/01/02 10:46:37;;;;;;;3.55;1.40;;;22.30;89.80;;;;;;4152011;34;20068;-88
2021/01/02 10:49:09;;;;;;;3.65;1.35;;;22.30;94.60;;;;;;4151457;34;20442;-90
2021/01/02 10:51:39;;;;;;;1.55;1.45;;;;;;;;;;4164126;34;20069;-92
2021/01/02 10:54:13;;;;;;;2.05;0.75;;;;;;;;;;4157464;34;20107;-87
2021/01/02 10:56:51;;;;;;;2.35;0.70;;;;;;;;;;4152647;34;20102;-93
2021/01/02 10:59:22;;;;;;;0.65;0.52;;;20.90;94.20;;;;;;4145559;34;20060;-96
2021/01/02 11:01:53;;;;;;;1.92;0.77;;;20.50;79.30;;;;;;4170368;34;20129;-88
2021/01/02 11:04:26;;;;;;;1.95;1.67;;;19.80;70.40;;;;;;4165767;34;20130;-88
2021/01/02 11:06:55;;;;;;;13.32;1.55;;;20.80;71.40;;;;;;4165604;34;20159;-89
2021/01/02 11:09:24;;;;;;;1.05;0.90;;;20.80;68.60;;;;;;4158080;34;20113;-89
2021/01/02 11:11:53;;;;;;;1.37;1.30;;;;;;;;;;4168277;34;20451;-89
2021/01/02 11:14:22;;;;;;;1.40;1.00;;;22.40;79.90;;;;;;4155662;34;20056;-90
2021/01/02 11:16:51;;;;;;;4.00;1.77;;;22.00;84.80;;;;;;4156468;34;20082;-90
2021/01/02 11:19:27;;;;;;;2.47;1.30;;;22.60;85.00;;;;;;4162292;34;20055;-85
2021/01/02 11:21:57;;;;;;;1.52;1.50;;;;;;;;;;4155169;34;20539;-86
2021/01/02 11:24:28;;;;;;;3.87;1.20;;;24.90;58.60;;;;;;4160021;34;20064;-90
2021/01/02 11:26:59;;;;;;;2.75;0.80;;;23.40;60.90;;;;;;4158727;34;20211;-93
2021/01/02 11:29:30;;;;;;;1.85;1.15;;;22.70;62.30;;;;;;4157256;34;20104;-93
2021/01/02 11:32:01;;;;;;;2.12;1.37;;;22.20;65.80;;;;;;4170194;34;20128;-90
2021/01/02 11:34:29;;;;;;;2.55;0.70;;;21.50;67.90;;;;;;4162999;34;20044;-94
2021/01/02 11:36:59;;;;;;;1.27;0.70;;;;;;;;;;4164577;34;20433;-88
2021/01/02 11:39:28;;;;;;;2.75;0.55;;;20.30;72.30;;;;;;4178925;34;20079;-85
2021/01/02 11:41:57;;;;;;;2.05;0.70;;;19.90;80.00;;;;;;4157785;34;20171;-93
2021/01/02 11:44:27;;;;;;;3.78;0.80;;;19.90;83.40;;;;;;4170826;34;20068;-87
2021/01/02 11:46:56;;;;;;;2.45;1.12;;;20.10;82.10;;;;;;4145859;34;20121;-90
2021/01/02 11:49:27;;;;;;;2.60;1.23;;;20.40;80.40;;;;;;4165408;34;20141;-90
2021/01/02 11:51:59;;;;;;;1.73;0.80;;;21.10;77.80;;;;;;4167430;34;20390;-89
2021/01/02 11:54:30;;;;;;;2.33;0.80;;;20.50;78.10;;;;;;4158705;34;20086;-87
2021/01/02 11:56:59;;;;;;;3.03;0.90;;;20.00;78.60;;;;;;4152116;34;20091;-86
2021/01/02 11:59:28;;;;;;;1.30;0.80;;;20.50;78.50;;;;;;4169934;34;20106;-85
2021/01/02 12:02:00;;;;;;;2.15;0.80;;;20.60;79.30;;;;;;4153396;34;20735;-87
2021/01/02 12:04:29;;;;;;;2.28;1.12;;;20.60;80.00;;;;;;4165026;34;20115;-88
2021/01/02 12:06:59;;;;;;;4.07;0.88;;;20.70;80.90;;;;;;4160228;34;20071;-89
2021/01/02 12:09:28;;;;;;;4.47;1.17;;;21.20;79.90;;;;;;4167869;34;20056;-90
2021/01/02 12:11:57;;;;;;;3.97;0.90;;;21.30;80.30;;;;;;4150993;34;20104;-90
2021/01/02 12:14:29;;;;;;;4.18;1.02;;;21.20;79.20;;;;;;4148457;34;20589;-88
2021/01/02 12:17:02;;;;;;;4.62;0.73;;;20.80;79.30;;;;;;4158950;34;20078;-85
2021/01/02 12:19:31;;;;;;;3.87;0.70;;;20.80;79.70;;;;;;4151811;34;20099;-87
2021/01/02 12:22:06;;;;;;;1.50;0.68;;;21.10;80.50;;;;;;4170223;34;20087;-88
2021/01/02 12:24:34;;;;;;;;;;;20.80;80.40;;;;;;4161574;34;20160;-86
2021/01/02 12:27:09;;;;;;;0.57;0.57;;;20.50;80.00;;;;;;4157543;34;19994;-90
2021/01/02 12:29:37;;;;;;;1.12;0.60;;;20.70;80.10;;;;;;4150840;34;20059;-89
2021/01/02 12:32:09;;;;;;;3.28;0.80;;;21.00;77.30;;;;;;4159410;34;20064;-89
2021/01/02 12:34:40;;;;;;;1.35;0.70;;;20.90;78.80;;;;;;4159894;34;20170;-89
2021/01/02 12:37:12;;;;;;;1.40;0.60;;;20.50;80.20;;;;;;4150280;34;20061;-91
2021/01/02 12:39:42;;;;;;;1.95;0.55;;;20.00;82.10;;;;;;4158320;34;20101;-86
2021/01/02 12:42:11;;;;;;;2.70;1.02;;;19.60;87.10;;;;;;4160788;34;20876;-89
2021/01/02 12:44:40;;;;;;;1.92;0.90;;;19.50;88.20;;;;;;4161844;34;20065;-88
2021/01/02 12:47:14;;;;;;;5.00;0.75;;;19.20;90.00;;;;;;4162327;34;20083;-86
2021/01/02 12:49:45;;;;;;;3.45;0.90;;;19.00;90.60;;;;;;4158677;34;20044;-90
2021/01/02 12:52:29;;;;;;;4.30;0.95;;;19.20;90.90;;;;;;4163338;34;20160;-87
2021/01/02 12:55:16;;;;;;;2.72;0.77;;;19.20;90.60;;;;;;4163885;34;20494;-85
2021/01/02 12:57:44;;;;;;;4.30;0.62;;;19.20;91.00;;;;;;4158805;34;20096;-86
2021/01/02 13:00:13;;;;;;;2.45;0.60;;;19.20;91.10;;;;;;4158216;34;20056;-91
2021/01/02 13:02:42;;;;;;;1.33;0.70;;;19.10;91.00;;;;;;4158356;34;20199;-85
2021/01/02 13:05:12;;;;;;;2.87;0.80;;;19.20;90.90;;;;;;4158868;34;20873;-89
2021/01/02 13:07:40;;;;;;;3.12;0.60;;;19.40;90.40;;;;;;4154373;34;20835;-90
2021/01/02 13:10:23;;;;;;;0.50;0.50;;;19.70;88.90;;;;;;4161524;34;20052;-88
2021/01/02 13:12:55;;;;;;;1.62;0.68;;;19.90;87.80;;;;;;4154934;34;20072;-90
2021/01/02 13:15:25;;;;;;;2.20;0.50;;;19.50;87.80;;;;;;4162380;34;20139;-88
2021/01/02 13:17:56;;;;;;;1.00;0.60;;;19.50;88.50;;;;;;4164719;34;20080;-86
2021/01/02 13:20:23;;;;;;;1.87;0.68;;;19.20;88.00;;;;;;4158061;34;20176;-88
2021/01/02 13:22:52;;;;;;;0.88;0.40;;;19.30;88.40;;;;;;4170305;34;20078;-88
2021/01/02 13:25:20;;;;;;;1.35;0.65;;;19.00;88.30;;;;;;4157143;34;20205;-85
2021/01/02 13:27:48;;;;;;;2.15;0.52;;;19.00;89.20;;;;;;4166552;34;20112;-92